Time;durP1;ratioP1;P1;durP2;ratioP2;P2;SDS_P1;SDS_P2;PMS_P1;PMS_P2;Temp;Humidity;BMP_temperature;BMP_pressure;BME280_temperature;BME280_humidity;BME280_pressure;Samples;Min_cycle;Max_cycle;Signal;HPM_P1;HPM_P2
2023/04/09 00:00:39;;;;;;;54.55;17.50;;;6.40;99.90;;;5.08;100.00;102389.22;4995471;28;20030;-78
2023/04/09 00:03:10;;;;;;;36.42;16.65;;;6.50;99.90;;;5.10;100.00;102395.31;4961897;28;20116;-80
2023/04/09 00:05:39;;;;;;;45.90;17.30;;;6.50;99.90;;;5.07;100.00;102387.47;4937974;28;20379;-80
2023/04/09 00:08:06;;;;;;;50.35;17.70;;;6.40;99.90;;;5.06;100.00;102388.34;4955222;28;20426;-79
2023/04/09 00:10:34;;;;;;;47.80;17.60;;;6.40;99.90;;;5.04;100.00;102387.47;4989940;28;20028;-79
2023/04/09 00:13:02;;;;;;;54.03;18.02;;;6.40;99.90;;;5.04;100.00;102387.47;4968687;28;20069;-80
2023/04/09 00:15:28;;;;;;;56.95;17.52;;;6.40;99.90;;;5.03;100.00;102388.34;4981648;28;20033;-78
2023/04/09 00:17:55;;;;;;;48.90;18.05;;;6.40;99.90;;;4.91;100.00;102383.09;4980205;28;20051;-79
2023/04/09 00:20:21;;;;;;;47.95;18.17;;;6.40;99.90;;;4.92;100.00;102383.09;4982951;28;20041;-81
2023/04/09 00:22:48;;;;;;;45.10;17.35;;;6.40;99.90;;;4.91;100.00;102388.31;4980046;28;20041;-78
2023/04/09 00:25:18;;;;;;;53.85;17.48;;;6.30;99.90;;;4.89;100.00;102387.44;4960623;28;20033;-79
2023/04/09 00:27:44;;;;;;;45.22;18.73;;;6.30;99.90;;;4.92;100.00;102383.09;4978806;28;20047;-77
2023/04/09 00:30:10;;;;;;;42.72;17.05;;;6.30;99.90;;;4.99;100.00;102388.31;4966171;28;20665;-78
2023/04/09 00:32:36;;;;;;;40.22;17.77;;;6.40;99.90;;;5.03;100.00;102385.75;4959758;28;20116;-77
2023/04/09 00:35:02;;;;;;;50.80;16.60;;;6.40;99.90;;;5.06;100.00;102387.47;4933780;28;20050;-80
2023/04/09 00:37:34;;;;;;;42.17;16.27;;;6.40;99.90;;;5.09;100.00;102382.25;4937669;28;20033;-79
2023/04/09 00:40:00;;;;;;;48.50;17.27;;;6.50;99.90;;;5.12;100.00;102377.06;4952016;28;20030;-78
2023/04/09 00:42:30;;;;;;;45.88;17.38;;;6.50;99.90;;;5.12;100.00;102377.94;4938248;28;20049;-78
2023/04/09 00:45:02;;;;;;;46.80;18.38;;;6.50;99.90;;;5.15;100.00;102382.28;4957695;28;20045;-79
2023/04/09 00:47:29;;;;;;;48.05;17.48;;;6.50;99.90;;;5.14;100.00;102380.53;4950994;28;20039;-79
2023/04/09 00:49:56;;;;;;;54.88;17.92;;;6.50;99.90;;;5.12;100.00;102372.69;4940522;28;20059;-79
2023/04/09 00:52:29;;;;;;;43.40;17.00;;;6.50;99.90;;;5.12;100.00;102377.94;4954325;28;20033;-80
2023/04/09 00:54:57;;;;;;;47.28;16.67;;;6.50;99.90;;;5.07;100.00;102369.19;4984975;28;20034;-79
2023/04/09 00:57:23;;;;;;;50.25;17.63;;;6.40;99.90;;;5.03;100.00;102372.69;4930185;28;20093;-78
2023/04/09 00:59:50;;;;;;;54.25;18.58;;;6.40;99.90;;;5.01;100.00;102370.91;4949236;28;20029;-79
2023/04/09 01:02:25;;;;;;;53.40;18.90;;;6.40;99.90;;;5.00;100.00;102375.28;4955634;28;20044;-78
2023/04/09 01:04:50;;;;;;;47.70;17.25;;;6.40;99.90;;;5.00;100.00;102377.00;4939166;28;20038;-79
2023/04/09 01:07:29;;;;;;;43.28;16.90;;;6.40;99.90;;;5.01;100.00;102374.41;4953290;28;20575;-78
2023/04/09 01:11:08;;;;;;;43.00;16.75;;;6.40;99.90;;;5.05;100.00;102368.31;4996105;28;20044;-79
2023/04/09 01:13:55;;;;;;;39.28;16.25;;;6.40;99.90;;;5.08;100.00;102370.09;4966336;28;20042;-79
2023/04/09 01:16:22;;;;;;;47.83;17.58;;;6.50;99.90;;;5.09;100.00;102377.91;4940703;28;20034;-78
2023/04/09 01:18:58;;;;;;;43.50;17.55;;;6.50;99.90;;;5.10;100.00;102370.97;4955329;28;20059;-79
2023/04/09 01:21:34;;;;;;;56.83;17.55;;;6.40;99.90;;;5.09;100.00;102372.69;4968388;28;20643;-79
2023/04/09 01:25:01;;;;;;;35.67;15.52;;;6.50;99.90;;;5.08;100.00;102373.56;4997278;28;20053;-78
2023/04/09 01:27:52;;;;;;;41.85;16.88;;;6.40;99.90;;;5.08;100.00;102381.38;4935674;28;20167;-79
2023/04/09 01:30:23;;;;;;;38.42;15.10;;;6.40;99.90;;;5.08;100.00;102376.16;4972518;28;20026;-79
2023/04/09 01:32:51;;;;;;;40.38;15.95;;;6.50;99.90;;;5.11;100.00;102384.00;4989008;28;20034;-79
2023/04/09 01:35:18;;;;;;;40.65;16.90;;;6.50;99.90;;;5.14;100.00;102384.03;4952994;28;20167;-79
2023/04/09 01:37:54;;;;;;;42.15;16.17;;;6.50;99.90;;;5.16;100.00;102384.00;4924634;28;20039;-79
2023/04/09 01:40:22;;;;;;;43.40;18.85;;;6.50;99.90;;;5.18;100.00;102384.88;4935035;28;20120;-79
2023/04/09 01:42:58;;;;;;;44.20;16.85;;;6.50;99.90;;;5.20;100.00;102385.75;4946382;28;20033;-79
2023/04/09 01:45:25;;;;;;;38.85;16.95;;;6.50;99.90;;;5.21;100.00;102389.28;4964360;28;20064;-79
2023/04/09 01:47:55;;;;;;;36.15;15.70;;;6.60;99.90;;;5.20;100.00;102388.38;4947966;28;20124;-79
2023/04/09 01:50:23;;;;;;;54.58;19.05;;;6.60;99.90;;;5.21;100.00;102374.47;4935861;28;20033;-78
2023/04/09 01:52:49;;;;;;;45.50;17.15;;;6.50;99.90;;;5.20;100.00;102379.66;4967043;28;20033;-78
2023/04/09 01:55:15;;;;;;;43.13;17.80;;;6.60;99.90;;;5.21;100.00;102377.06;4958804;28;20045;-78
2023/04/09 01:57:41;;;;;;;48.65;19.33;;;6.60;99.90;;;5.23;100.00;102382.31;4985499;28;20022;-79
2023/04/09 02:00:19;;;;;;;59.10;20.05;;;6.60;99.90;;;5.25;100.00;102385.78;4947706;28;20048;-79
2023/04/09 02:03:10;;;;;;;51.95;18.90;;;6.60;99.90;;;5.22;100.00;102380.53;4952164;28;20127;-79
2023/04/09 02:05:43;;;;;;;52.50;19.02;;;6.60;99.90;;;5.19;100.00;102377.94;4957461;28;20029;-78
2023/04/09 02:08:16;;;;;;;49.38;20.20;;;6.50;99.90;;;5.15;100.00;102377.06;4988806;28;20041;-79
2023/04/09 02:10:52;;;;;;;55.65;20.40;;;6.50;99.90;;;5.13;100.00;102382.25;4969298;28;20030;-79
2023/04/09 02:13:19;;;;;;;58.85;20.40;;;6.50;99.90;;;5.13;100.00;102389.22;4966984;28;20037;-79
2023/04/09 02:15:47;;;;;;;47.83;20.08;;;6.50;99.90;;;5.12;100.00;102387.50;4931025;28;20576;-77
2023/04/09 02:18:22;;;;;;;55.38;21.52;;;6.50;99.90;;;5.11;100.00;102381.38;4955183;28;20383;-78
2023/04/09 02:20:48;;;;;;;65.30;22.03;;;6.50;99.90;;;5.11;100.00;102389.22;4962429;28;20050;-78
2023/04/09 02:23:16;;;;;;;58.72;22.23;;;6.50;99.90;;;5.11;100.00;102380.53;4921183;28;20204;-77
2023/04/09 02:25:43;;;;;;;58.42;21.73;;;6.50;99.90;;;5.13;100.00;102382.25;4976448;28;20056;-79
2023/04/09 02:28:13;;;;;;;58.10;21.25;;;6.50;99.90;;;5.07;100.00;102381.38;4949283;28;20037;-78
2023/04/09 02:30:39;;;;;;;64.25;22.88;;;6.40;99.90;;;4.99;100.00;102386.59;4951340;28;20036;-78
2023/04/09 02:33:05;;;;;;;58.40;22.42;;;6.40;99.90;;;4.98;100.00;102384.84;4956508;28;20037;-77
2023/04/09 02:35:32;;;;;;;70.03;23.38;;;6.30;99.90;;;4.95;100.00;102377.00;4999272;28;20092;-78
2023/04/09 02:37:58;;;;;;;68.25;22.50;;;6.40;99.90;;;4.96;100.00;102381.34;4987808;28;20041;-79
2023/04/09 02:40:31;;;;;;;62.97;22.58;;;6.40;99.90;;;4.95;100.00;102379.63;4997067;28;20037;-78
2023/04/09 02:42:57;;;;;;;54.20;21.42;;;6.30;99.90;;;4.92;100.00;102374.38;4954528;28;20055;-77
2023/04/09 02:45:23;;;;;;;61.03;22.70;;;6.30;99.90;;;4.87;100.00;102376.09;4924661;28;20623;-78
2023/04/09 02:47:49;;;;;;;62.67;20.90;;;6.20;99.90;;;4.76;100.00;102368.25;4955838;28;20045;-79
2023/04/09 02:50:14;;;;;;;57.53;21.45;;;6.20;99.90;;;4.78;100.00;102370.84;4984140;28;20586;-77
2023/04/09 02:52:49;;;;;;;61.78;21.98;;;6.20;99.90;;;4.84;100.00;102369.16;4955221;28;20152;-79
2023/04/09 02:55:17;;;;;;;61.67;21.45;;;6.30;99.90;;;4.84;100.00;102363.06;4979577;28;20153;-77
2023/04/09 02:57:43;;;;;;;51.95;20.98;;;6.30;99.90;;;4.86;100.00;102366.50;4981932;28;20032;-77
2023/04/09 03:00:16;;;;;;;55.08;22.25;;;6.20;99.90;;;4.82;100.00;102360.44;4998466;28;20071;-78
2023/04/09 03:02:42;;;;;;;53.05;20.55;;;6.30;99.90;;;4.86;100.00;102361.28;5029400;28;20041;-78
2023/04/09 03:05:08;;;;;;;53.22;21.88;;;6.30;99.90;;;4.89;100.00;102364.78;4919333;28;20041;-78
2023/04/09 03:07:34;;;;;;;57.08;21.52;;;6.30;99.90;;;4.93;100.00;102360.47;4970969;28;20173;-78
2023/04/09 03:10:02;;;;;;;58.10;21.48;;;6.30;99.90;;;4.95;100.00;102356.13;4996480;28;20097;-78
2023/04/09 03:12:30;;;;;;;49.55;21.75;;;6.40;99.90;;;4.96;100.00;102357.00;4944531;28;20056;-77
2023/04/09 03:14:56;;;;;;;57.90;21.05;;;6.30;99.90;;;4.99;100.00;102356.97;4998472;28;20033;-77
2023/04/09 03:17:24;;;;;;;53.63;21.45;;;6.40;99.90;;;4.98;100.00;102363.94;5003686;28;20131;-78
2023/04/09 03:19:51;;;;;;;52.50;19.60;;;6.40;99.90;;;5.00;100.00;102357.00;4981116;28;20037;-78
2023/04/09 03:22:21;;;;;;;54.15;19.83;;;6.40;99.90;;;5.01;100.00;102352.63;5002300;28;20104;-78
2023/04/09 03:24:47;;;;;;;58.50;20.80;;;6.40;99.90;;;5.03;100.00;102351.81;4964796;28;20457;-77
2023/04/09 03:27:12;;;;;;;59.65;20.80;;;6.40;99.90;;;5.06;100.00;102357.00;4942915;28;20043;-78
2023/04/09 03:29:38;;;;;;;63.15;22.05;;;6.40;99.90;;;5.08;100.00;102363.13;4983202;28;20627;-78
2023/04/09 03:32:04;;;;;;;50.40;20.92;;;6.40;99.90;;;5.10;100.00;102361.38;4997306;28;20113;-78
2023/04/09 03:34:30;;;;;;;55.42;22.27;;;6.50;99.90;;;5.08;100.00;102352.66;5008248;28;20041;-78
2023/04/09 03:37:03;;;;;;;54.53;21.75;;;6.50;99.90;;;5.09;100.00;102351.78;4979609;28;20041;-78
2023/04/09 03:39:29;;;;;;;58.60;20.48;;;6.40;99.90;;;5.08;100.00;102354.41;4962979;28;20042;-77
2023/04/09 03:41:57;;;;;;;56.75;22.13;;;6.40;99.90;;;5.07;100.00;102355.28;4969291;28;20721;-77
2023/04/09 03:44:26;;;;;;;58.95;22.20;;;6.40;99.90;;;5.07;100.00;102358.75;4982514;28;20045;-78
2023/04/09 03:46:53;;;;;;;57.83;22.13;;;6.50;99.90;;;5.07;100.00;102352.66;4959786;28;20034;-78
2023/04/09 03:49:19;;;;;;;61.00;22.90;;;6.40;99.90;;;5.09;100.00;102357.00;4950954;28;20038;-78
2023/04/09 03:51:45;;;;;;;65.90;22.90;;;6.40;99.90;;;5.07;100.00;102357.88;4980491;28;20098;-77
2023/04/09 03:54:10;;;;;;;59.53;22.35;;;6.40;99.90;;;5.07;100.00;102353.53;4992537;28;20046;-78
2023/04/09 03:56:36;;;;;;;68.57;23.35;;;6.40;99.90;;;5.08;100.00;102354.41;4944735;28;20041;-77
2023/04/09 03:59:02;;;;;;;58.42;22.05;;;6.40;99.90;;;5.03;100.00;102351.81;4980261;28;20034;-78
2023/04/09 04:01:35;;;;;;;64.75;21.40;;;6.40;99.90;;;4.99;100.00;102352.66;4928185;28;20093;-78
2023/04/09 04:04:01;;;;;;;60.10;23.27;;;6.30;99.90;;;4.89;100.00;102349.13;4962092;28;20050;-78
2023/04/09 04:06:27;;;;;;;50.92;21.00;;;6.30;99.90;;;4.84;100.00;102347.41;4906489;28;20845;-78
2023/04/09 04:08:53;;;;;;;61.75;21.35;;;6.20;99.90;;;4.80;100.00;102345.63;4950391;28;20049;-78
2023/04/09 04:11:18;;;;;;;72.55;21.13;;;6.20;99.90;;;4.73;100.00;102345.63;4930178;28;20127;-78
2023/04/09 04:13:49;;;;;;;59.60;20.42;;;6.10;99.90;;;4.60;100.00;102341.22;4940563;28;20112;-78
2023/04/09 04:16:15;;;;;;;59.05;20.15;;;6.10;99.90;;;4.60;100.00;102341.22;4977741;28;20040;-76
2023/04/09 04:18:41;;;;;;;50.10;20.17;;;6.10;99.90;;;4.57;100.00;102349.03;4976732;28;20100;-78
2023/04/09 04:21:17;;;;;;;55.85;18.42;;;6.10;99.90;;;4.56;100.00;102351.59;5012870;28;20132;-77
2023/04/09 04:23:44;;;;;;;56.70;17.73;;;6.00;99.90;;;4.48;100.00;102356.81;4977329;28;20311;-76
2023/04/09 04:26:11;;;;;;;55.42;19.52;;;6.00;99.90;;;4.47;100.00;102350.72;4950085;28;20053;-77
2023/04/09 04:28:38;;;;;;;52.10;18.60;;;6.00;99.90;;;4.49;100.00;102353.31;4981484;28;20037;-78
2023/04/09 04:31:11;;;;;;;47.17;17.98;;;6.00;99.90;;;4.56;100.00;102354.22;4964415;28;20461;-77
2023/04/09 04:33:39;;;;;;;47.47;17.98;;;6.00;99.90;;;4.62;100.00;102355.16;4997773;28;20039;-77
2023/04/09 04:36:12;;;;;;;44.58;16.98;;;6.10;99.90;;;4.64;100.00;102348.16;4947696;28;20052;-77
2023/04/09 04:38:42;;;;;;;55.35;17.88;;;6.10;99.90;;;4.68;100.00;102349.94;4983872;28;20540;-78
2023/04/09 04:41:10;;;;;;;45.72;16.25;;;6.10;99.90;;;4.56;100.00;102349.91;4978821;28;20040;-78
2023/04/09 04:43:45;;;;;;;55.53;16.38;;;6.10;99.90;;;4.62;100.00;102355.16;4947793;28;20930;-78
2023/04/09 04:46:11;;;;;;;51.00;16.33;;;6.10;99.90;;;4.56;100.00;102346.41;4963449;28;20042;-77
2023/04/09 04:48:37;;;;;;;41.75;15.27;;;6.10;99.90;;;4.55;100.00;102348.13;4975130;28;20718;-77
2023/04/09 04:51:02;;;;;;;52.17;16.67;;;6.10;99.90;;;4.53;100.00;102352.47;4943635;28;20436;-78
2023/04/09 04:53:28;;;;;;;40.05;14.63;;;6.00;99.90;;;4.58;100.00;102349.88;4973566;28;20486;-78
2023/04/09 04:55:57;;;;;;;47.15;14.82;;;6.10;99.90;;;4.57;100.00;102349.03;4935571;28;20017;-78
2023/04/09 04:58:24;;;;;;;40.05;14.13;;;6.10;99.90;;;4.62;100.00;102349.94;4974336;28;20048;-78
2023/04/09 05:00:50;;;;;;;49.47;13.77;;;6.10;99.90;;;4.64;100.00;102349.91;4963664;28;20046;-78
2023/04/09 05:03:16;;;;;;;37.33;13.88;;;6.10;99.90;;;4.72;100.00;102356.91;4954305;28;20163;-78
2023/04/09 05:05:42;;;;;;;42.78;15.00;;;6.20;99.90;;;4.78;100.00;102353.47;4919859;28;20033;-78
2023/04/09 05:08:13;;;;;;;41.13;14.43;;;6.20;99.90;;;4.87;100.00;102358.69;4963902;28;20076;-78
2023/04/09 05:10:42;;;;;;;43.78;14.90;;;6.30;99.90;;;4.88;100.00;102357.84;4982268;28;20076;-77
2023/04/09 05:13:08;;;;;;;39.50;13.43;;;6.20;99.90;;;4.84;100.00;102366.53;4996298;28;20037;-77
2023/04/09 05:15:42;;;;;;;34.45;12.57;;;6.20;99.90;;;4.76;100.00;102357.78;4992821;28;20033;-76
2023/04/09 05:18:08;;;;;;;35.33;12.25;;;6.20;99.90;;;4.79;100.00;102356.94;4951674;28;20046;-77
2023/04/09 05:20:34;;;;;;;37.40;12.50;;;6.30;99.90;;;4.83;100.00;102364.78;4960892;28;20551;-78
2023/04/09 05:23:00;;;;;;;36.45;12.23;;;6.20;99.90;;;4.77;100.00;102363.88;4944423;28;20045;-77
2023/04/09 05:25:26;;;;;;;44.60;11.23;;;6.20;99.90;;;4.82;100.00;102367.41;4970254;28;20044;-77
2023/04/09 05:28:00;;;;;;;37.35;10.95;;;6.30;99.90;;;4.75;100.00;102369.09;4950053;28;20038;-78
2023/04/09 05:30:26;;;;;;;30.67;10.77;;;6.20;99.90;;;4.72;100.00;102367.34;4968137;28;20120;-77
2023/04/09 05:32:52;;;;;;;31.25;9.95;;;6.30;99.90;;;4.75;100.00;102365.63;4963230;28;20124;-78
2023/04/09 05:35:18;;;;;;;28.17;10.05;;;6.20;99.90;;;4.80;100.00;102369.13;4957317;28;20613;-77
2023/04/09 05:37:44;;;;;;;35.20;10.70;;;6.20;99.90;;;4.77;100.00;102366.50;4949753;28;20041;-77
2023/04/09 05:40:13;;;;;;;33.20;10.68;;;6.30;99.90;;;4.86;100.00;102370.03;4986346;28;20566;-78
2023/04/09 05:42:39;;;;;;;24.98;9.80;;;6.30;99.90;;;4.81;100.00;102371.72;4957567;28;20093;-77
2023/04/09 05:45:06;;;;;;;30.63;9.20;;;6.30;99.90;;;4.83;100.00;102369.13;4940764;28;20474;-77
2023/04/09 05:47:32;;;;;;;32.90;10.75;;;6.30;99.90;;;4.75;100.00;102366.47;4984942;28;20528;-77
2023/04/09 05:49:58;;;;;;;29.77;11.35;;;6.30;99.90;;;4.90;100.00;102370.88;4963243;28;20041;-77
2023/04/09 05:52:28;;;;;;;31.13;10.57;;;6.40;99.90;;;4.93;100.00;102370.91;4986896;28;20044;-77
2023/04/09 05:54:55;;;;;;;27.08;10.20;;;6.40;99.90;;;4.95;100.00;102374.41;4968597;28;20128;-78
2023/04/09 05:57:21;;;;;;;35.05;11.75;;;6.50;99.90;;;5.08;100.00;102376.16;4991394;28;20036;-78
2023/04/09 05:59:47;;;;;;;24.17;11.55;;;6.50;99.90;;;5.13;100.00;102374.44;4962023;28;20029;-77
2023/04/09 06:02:13;;;;;;;30.77;11.07;;;6.50;99.90;;;5.13;100.00;102379.66;4953722;28;20052;-78
2023/04/09 06:04:38;;;;;;;31.77;10.73;;;6.60;99.90;;;5.23;100.00;102379.69;4941775;28;20053;-78
2023/04/09 06:07:13;;;;;;;26.17;10.70;;;6.70;99.90;;;5.31;100.00;102378.84;4936399;28;20041;-77
2023/04/09 06:09:39;;;;;;;27.58;10.95;;;6.70;99.90;;;5.33;100.00;102374.50;4991807;28;20033;-77
2023/04/09 06:12:05;;;;;;;22.80;9.77;;;6.70;99.90;;;5.34;100.00;102384.06;4967330;28;20697;-77
2023/04/09 06:14:31;;;;;;;30.27;9.50;;;6.70;99.90;;;5.33;100.00;102384.94;4975620;28;20081;-78
2023/04/09 06:17:00;;;;;;;26.38;9.90;;;6.70;99.90;;;5.33;100.00;102387.56;4955408;28;20114;-78
2023/04/09 06:19:26;;;;;;;32.38;10.02;;;6.80;99.90;;;5.43;100.00;102395.41;4955446;28;20066;-77
2023/04/09 06:21:52;;;;;;;26.98;10.20;;;6.80;99.90;;;5.39;100.00;102393.66;4978865;28;21088;-77
2023/04/09 06:24:18;;;;;;;26.67;9.95;;;6.80;99.90;;;5.36;100.00;102391.91;4998337;28;20038;-79
2023/04/09 06:26:44;;;;;;;27.20;9.70;;;6.80;99.90;;;5.39;100.00;102385.81;4974975;28;20528;-78
2023/04/09 06:29:10;;;;;;;23.75;10.10;;;6.80;99.90;;;5.34;100.00;102397.13;5006723;22;20046;-78
2023/04/09 06:31:41;;;;;;;24.55;7.82;;;6.80;99.90;;;5.22;100.00;102399.69;4972774;28;20127;-78
2023/04/09 06:34:07;;;;;;;21.67;9.98;;;6.80;99.90;;;5.28;100.00;102393.63;4978321;28;20069;-78
2023/04/09 06:36:36;;;;;;;29.50;9.07;;;6.70;99.90;;;5.19;100.00;102401.44;4961933;28;20105;-77
2023/04/09 06:39:02;;;;;;;29.38;11.27;;;6.70;99.90;;;5.34;100.00;102404.09;4979024;28;20041;-78
2023/04/09 06:41:28;;;;;;;28.35;9.80;;;6.80;99.90;;;5.26;100.00;102397.97;4940010;28;20037;-76
2023/04/09 06:43:59;;;;;;;26.50;10.43;;;6.70;99.90;;;5.20;100.00;102401.44;4946823;28;20552;-78
2023/04/09 06:46:25;;;;;;;19.17;7.55;;;6.70;99.90;;;5.04;100.00;102402.28;4995494;28;20029;-78
2023/04/09 06:48:52;;;;;;;33.08;9.25;;;6.60;99.90;;;5.00;100.00;102403.13;4944391;28;20049;-78
2023/04/09 06:51:17;;;;;;;25.42;9.85;;;6.50;99.90;;;5.01;100.00;102400.53;4956693;28;20128;-78
2023/04/09 06:53:43;;;;;;;27.48;10.45;;;6.60;99.90;;;5.09;100.00;102406.63;4952634;28;20067;-78
2023/04/09 06:56:14;;;;;;;33.55;11.60;;;6.70;99.90;;;5.31;100.00;102404.97;4962104;28;20045;-78
2023/04/09 06:58:40;;;;;;;24.98;10.15;;;6.70;99.90;;;5.19;100.00;102407.53;4953475;28;20093;-77
2023/04/09 07:01:06;;;;;;;28.63;10.85;;;6.70;99.90;;;5.29;100.00;102411.03;4952314;28;20085;-76
2023/04/09 07:03:32;;;;;;;28.60;10.50;;;6.70;99.90;;;5.22;100.00;102409.28;4968205;28;20106;-79
2023/04/09 07:05:58;;;;;;;29.42;9.98;;;6.70;99.90;;;5.21;100.00;102412.78;4952563;28;20440;-78
2023/04/09 07:08:31;;;;;;;25.67;10.02;;;6.80;99.90;;;5.43;100.00;102416.28;4921120;28;20029;-78
2023/04/09 07:10:57;;;;;;;28.63;9.70;;;6.80;99.90;;;5.31;100.00;102414.50;4928954;28;20042;-77
2023/04/09 07:13:23;;;;;;;23.20;9.07;;;6.80;99.90;;;5.30;100.00;102413.66;4923921;28;20145;-77
2023/04/09 07:15:49;;;;;;;23.50;7.90;;;6.80;99.90;;;5.21;100.00;102412.78;4947863;28;20116;-78
2023/04/09 07:18:14;;;;;;;22.23;9.52;;;6.70;99.90;;;5.25;100.00;102419.75;4944078;28;20050;-77
2023/04/09 07:20:46;;;;;;;24.42;9.32;;;6.70;99.90;;;5.21;100.00;102418.84;4970045;28;20632;-78
2023/04/09 07:23:12;;;;;;;19.08;8.30;;;6.70;99.90;;;5.19;100.00;102420.59;4984293;28;20040;-78
2023/04/09 07:25:38;;;;;;;28.95;9.85;;;6.80;99.90;;;5.33;100.00;102425.84;4984423;28;20116;-78
2023/04/09 07:28:04;;;;;;;24.80;9.82;;;6.80;99.90;;;5.37;100.00;102424.97;4967384;28;20029;-78
2023/04/09 07:30:30;;;;;;;19.40;9.05;;;6.90;99.90;;;5.46;100.00;102427.59;4954119;28;20053;-78
2023/04/09 07:33:01;;;;;;;22.83;8.90;;;6.90;99.90;;;5.43;100.00;102427.63;4970449;28;20094;-78
2023/04/09 07:35:26;;;;;;;23.52;8.90;;;6.90;99.90;;;5.49;100.00;102435.47;4980426;28;20033;-78
2023/04/09 07:37:52;;;;;;;24.95;9.60;;;6.90;99.90;;;5.43;100.00;102434.59;4961547;28;20108;-78
2023/04/09 07:40:19;;;;;;;30.05;9.13;;;6.90;99.90;;;5.53;100.00;102441.59;4983770;28;20125;-78
2023/04/09 07:42:44;;;;;;;23.77;9.10;;;6.90;99.90;;;5.57;100.00;102432.84;4970817;28;20038;-77
2023/04/09 07:45:10;;;;;;;29.13;9.15;;;7.00;99.90;;;5.49;100.00;102430.25;4986643;28;20049;-78
2023/04/09 07:47:40;;;;;;;22.30;8.82;;;7.00;99.90;;;5.76;100.00;102437.22;5007635;28;20026;-78
2023/04/09 07:50:07;;;;;;;22.42;9.77;;;7.10;99.90;;;5.82;100.00;102440.72;5008885;28;20038;-77
2023/04/09 07:52:33;;;;;;;25.45;10.10;;;7.20;99.90;;;6.00;100.00;102437.28;4958126;28;20041;-78
2023/04/09 07:54:59;;;;;;;33.20;10.40;;;7.30;99.90;;;6.00;100.00;102434.66;4959415;28;20037;-78
2023/04/09 07:57:26;;;;;;;24.92;9.40;;;7.40;99.90;;;6.03;99.90;102437.28;4950738;28;20091;-78
2023/04/09 07:59:57;;;;;;;25.17;10.52;;;7.40;99.90;;;6.13;100.00;102441.63;4952663;28;20029;-78
2023/04/09 08:02:23;;;;;;;22.15;9.98;;;7.40;99.90;;;6.08;99.39;102438.16;4940189;28;20048;-78
2023/04/09 08:04:48;;;;;;;24.35;8.73;;;7.50;99.90;;;6.14;98.25;102440.75;4988854;28;20086;-78
2023/04/09 08:07:14;;;;;;;23.17;9.35;;;7.60;99.90;;;6.42;98.31;102444.22;4979534;28;20052;-78
2023/04/09 08:09:43;;;;;;;26.92;9.65;;;7.60;99.90;;;6.38;97.30;102441.59;4980780;28;20113;-78
2023/04/09 08:12:15;;;;;;;18.48;8.30;;;7.60;99.90;;;6.25;96.87;102444.22;4991677;28;20022;-77
2023/04/09 08:14:44;;;;;;;22.63;9.02;;;7.70;99.90;;;6.52;96.53;102437.19;4961870;28;20034;-77
2023/04/09 08:17:11;;;;;;;27.27;9.95;;;7.90;99.90;;;6.82;96.54;102448.47;4992122;28;20068;-78
2023/04/09 08:19:38;;;;;;;23.30;8.38;;;8.10;99.90;;;7.21;95.81;102446.56;4962624;28;20036;-77
2023/04/09 08:22:04;;;;;;;22.27;9.23;;;8.20;99.90;;;7.24;93.45;102454.41;5003122;28;20036;-78
2023/04/09 08:24:34;;;;;;;29.48;8.73;;;8.40;99.90;;;7.48;92.95;102448.16;4982168;28;20045;-83
2023/04/09 08:27:03;;;;;;;19.70;8.15;;;8.60;99.90;;;7.65;92.32;102451.53;4972987;28;20033;-77
2023/04/09 08:29:35;;;;;;;18.27;7.70;;;8.80;99.90;;;7.93;91.33;102457.44;5011638;28;20490;-78
2023/04/09 08:32:01;;;;;;;19.98;5.97;;;8.90;99.90;;;7.53;88.66;102456.84;4971246;28;20038;-77
2023/04/09 08:34:30;;;;;;;15.32;6.38;;;8.90;99.90;;;7.35;88.14;102458.72;4977049;28;20547;-77
2023/04/09 08:37:03;;;;;;;18.40;7.93;;;8.80;99.90;;;7.47;87.71;102451.66;4991574;28;20504;-78
2023/04/09 08:39:33;;;;;;;18.40;7.18;;;8.80;99.90;;;7.50;87.51;102446.41;5005271;28;20034;-78
2023/04/09 08:42:05;;;;;;;22.55;6.50;;;8.90;99.90;;;7.54;87.22;102449.00;4978805;28;20026;-79
2023/04/09 08:44:31;;;;;;;17.60;6.88;;;8.90;99.90;;;7.75;86.35;102447.09;4992762;28;20518;-78
2023/04/09 08:47:08;;;;;;;15.45;6.57;;;8.90;99.90;;;7.68;86.48;102442.78;4991628;28;20036;-78
2023/04/09 08:49:38;;;;;;;19.00;8.50;;;9.00;99.90;;;7.96;86.19;102446.91;5006583;28;20875;-78
2023/04/09 08:52:05;;;;;;;22.05;6.97;;;9.10;99.90;;;7.99;86.29;102443.41;4975769;28;20574;-78
2023/04/09 08:54:32;;;;;;;21.25;7.57;;;9.20;99.90;;;8.04;86.11;102449.50;4953024;28;20106;-79
2023/04/09 08:57:05;;;;;;;21.10;7.72;;;9.40;99.90;;;8.21;85.44;102447.59;4983128;28;20041;-79
2023/04/09 08:59:35;;;;;;;21.95;7.18;;;9.50;99.90;;;8.43;85.39;102452.66;4992757;28;20139;-79
2023/04/09 09:02:11;;;;;;;20.23;8.13;;;9.60;99.90;;;8.54;84.55;102444.69;4992608;28;20026;-78
2023/04/09 09:04:59;;;;;;;16.15;7.03;;;9.70;99.90;;;8.63;84.37;102445.44;4999226;28;20049;-79
2023/04/09 09:07:33;;;;;;;16.70;7.50;;;9.80;99.90;;;8.74;83.01;102455.81;4989240;28;20044;-78
2023/04/09 09:10:05;;;;;;;16.55;7.50;;;9.80;99.90;;;8.77;82.30;102458.44;4981296;28;20092;-78
2023/04/09 09:12:37;;;;;;;20.10;8.35;;;10.00;99.90;;;8.93;83.09;102456.47;5012843;28;20124;-78
2023/04/09 09:15:27;;;;;;;21.85;7.35;;;10.00;99.90;;;8.96;82.10;102455.56;4995598;28;20068;-78
2023/04/09 09:18:04;;;;;;;20.65;8.30;;;10.10;99.90;;;9.02;82.51;102461.59;4999114;28;20048;-78
2023/04/09 09:20:33;;;;;;;19.35;7.10;;;10.10;99.90;;;8.94;81.37;102459.97;5000206;28;20492;-78
2023/04/09 09:23:10;;;;;;;20.88;7.47;;;10.20;99.90;;;9.04;81.65;102457.22;4990018;28;20095;-78
2023/04/09 09:25:40;;;;;;;20.20;7.15;;;10.20;99.90;;;9.06;80.48;102457.19;5001565;28;20050;-78
2023/04/09 09:28:21;;;;;;;20.10;7.68;;;10.30;99.90;;;9.31;80.94;102455.13;5016615;28;20409;-78
2023/04/09 09:30:48;;;;;;;16.52;7.78;;;10.40;99.90;;;9.35;80.99;102450.69;5002888;28;20030;-78
2023/04/09 09:33:23;;;;;;;19.10;7.18;;;10.50;99.90;;;9.49;79.75;102454.00;4976801;28;20040;-78
2023/04/09 09:35:56;;;;;;;19.17;7.97;;;10.70;99.90;;;9.69;80.13;102458.09;4994975;28;20122;-78
2023/04/09 09:38:23;;;;;;;20.00;6.22;;;10.80;99.90;;;9.88;78.65;102466.56;4962724;28;20054;-78
2023/04/09 09:40:49;;;;;;;18.83;7.05;;;10.90;99.90;;;9.79;76.85;102467.59;4959900;28;20063;-78
2023/04/09 09:43:18;;;;;;;17.65;6.60;;;10.90;99.90;;;9.89;76.09;102463.88;4975062;28;20037;-77
2023/04/09 09:45:49;;;;;;;23.25;7.07;;;11.10;99.90;;;10.25;75.50;102464.19;4995821;28;20516;-79
2023/04/09 09:48:21;;;;;;;17.77;6.43;;;11.10;99.90;;;10.00;75.48;102456.72;4990412;28;20049;-77
2023/04/09 09:50:53;;;;;;;18.58;7.03;;;11.20;99.90;;;10.09;74.96;102462.72;4989810;28;20033;-78
2023/04/09 09:53:36;;;;;;;15.20;6.13;;;11.10;99.90;;;9.89;74.77;102468.28;4996505;28;20029;-77
2023/04/09 09:56:21;;;;;;;21.73;6.50;;;11.20;99.90;;;10.09;75.60;102462.72;4998843;28;20038;-78
2023/04/09 09:59:25;;;;;;;14.68;6.07;;;11.10;99.90;;;9.62;74.22;102458.16;5006836;28;20058;-77
2023/04/09 10:02:17;;;;;;;11.55;6.03;;;11.00;99.90;;;9.86;74.46;102471.84;4970003;28;21858;-77
2023/04/09 10:04:46;;;;;;;15.80;6.22;;;11.10;99.90;;;10.00;73.77;102456.72;4986201;28;20088;-78
2023/04/09 10:07:14;;;;;;;10.10;5.57;;;11.20;99.90;;;10.31;74.24;102465.88;4958537;28;20055;-78
2023/04/09 10:09:50;;;;;;;18.45;6.97;;;11.20;99.90;;;10.58;72.76;102456.59;4959036;28;20034;-78
2023/04/09 10:12:21;;;;;;;17.15;6.63;;;11.60;99.90;;;10.87;73.39;102472.69;4986688;28;20043;-77
2023/04/09 10:14:56;;;;;;;14.57;6.20;;;11.80;99.90;;;11.14;72.97;102461.63;4976284;28;20026;-78
2023/04/09 10:17:31;;;;;;;13.45;6.22;;;12.00;99.90;;;11.27;71.99;102465.72;4994692;28;20040;-77